sensor_id;sensor_type;location;lat;lon;timestamp;pressure;altitude;pressure_sealevel;temperature;humidity
45040;BME280;30778;53.574;7.770;2023-11-21T00:00:54;100966.75;;;6.61;63.24
45040;BME280;30778;53.574;7.770;2023-11-21T00:03:20;100976.28;;;6.62;63.28
45040;BME280;30778;53.574;7.770;2023-11-21T00:05:45;100970.25;;;6.60;62.95
45040;BME280;30778;53.574;7.770;2023-11-21T00:08:11;100965.09;;;6.59;63.23
45040;BME280;30778;53.574;7.770;2023-11-21T00:10:37;100965.09;;;6.59;63.24
45040;BME280;30778;53.574;7.770;2023-11-21T00:13:04;100971.09;;;6.61;63.06
45040;BME280;30778;53.574;7.770;2023-11-21T00:15:29;100975.34;;;6.65;63.29
45040;BME280;30778;53.574;7.770;2023-11-21T00:17:54;100984.81;;;6.67;63.13
45040;BME280;30778;53.574;7.770;2023-11-21T00:20:20;100977.84;;;6.69;63.13
45040;BME280;30778;53.574;7.770;2023-11-21T00:22:46;100982.13;;;6.70;63.45
45040;BME280;30778;53.574;7.770;2023-11-21T00:25:12;100985.66;;;6.68;63.07
45040;BME280;30778;53.574;7.770;2023-11-21T00:27:40;100982.03;;;6.75;63.12
45040;BME280;30778;53.574;7.770;2023-11-21T00:30:06;100993.25;;;6.77;62.80
45040;BME280;30778;53.574;7.770;2023-11-21T00:32:35;100981.94;;;6.80;63.13
45040;BME280;30778;53.574;7.770;2023-11-21T00:35:01;100989.69;;;6.81;63.05
45040;BME280;30778;53.574;7.770;2023-11-21T00:37:27;100985.50;;;6.76;62.87
45040;BME280;30778;53.574;7.770;2023-11-21T00:39:53;100985.44;;;6.77;62.90
45040;BME280;30778;53.574;7.770;2023-11-21T00:42:18;100992.47;;;6.74;63.13
45040;BME280;30778;53.574;7.770;2023-11-21T00:44:44;100998.84;;;6.59;63.09
45040;BME280;30778;53.574;7.770;2023-11-21T00:47:09;101008.41;;;6.57;63.31
45040;BME280;30778;53.574;7.770;2023-11-21T00:49:35;101002.69;;;6.41;63.71
45040;BME280;30778;53.574;7.770;2023-11-21T00:52:00;101011.19;;;6.47;64.05
45040;BME280;30778;53.574;7.770;2023-11-21T00:54:27;101018.03;;;6.53;63.64
45040;BME280;30778;53.574;7.770;2023-11-21T00:56:52;101027.53;;;6.53;63.70
45040;BME280;30778;53.574;7.770;2023-11-21T00:59:18;101028.25;;;6.59;63.58
45040;BME280;30778;53.574;7.770;2023-11-21T01:01:43;101031.84;;;6.54;63.79
45040;BME280;30778;53.574;7.770;2023-11-21T01:04:09;101035.31;;;6.53;63.88
45040;BME280;30778;53.574;7.770;2023-11-21T01:06:35;101039.56;;;6.57;63.58
45040;BME280;30778;53.574;7.770;2023-11-21T01:09:01;101042.91;;;6.62;63.70
45040;BME280;30778;53.574;7.770;2023-11-21T01:11:26;101051.44;;;6.68;63.73
45040;BME280;30778;53.574;7.770;2023-11-21T01:13:52;101060.13;;;6.69;63.68
45040;BME280;30778;53.574;7.770;2023-11-21T01:16:18;101061.75;;;6.73;63.46
45040;BME280;30778;53.574;7.770;2023-11-21T01:18:44;101062.75;;;6.66;63.49
45040;BME280;30778;53.574;7.770;2023-11-21T01:21:09;101073.94;;;6.71;63.90
45040;BME280;30778;53.574;7.770;2023-11-21T01:23:35;101072.94;;;6.75;63.72
45040;BME280;30778;53.574;7.770;2023-11-21T01:26:01;101075.69;;;6.69;63.64
45040;BME280;30778;53.574;7.770;2023-11-21T01:28:26;101079.44;;;6.56;64.20
45040;BME280;30778;53.574;7.770;2023-11-21T01:30:52;101083.50;;;6.67;64.02
45040;BME280;30778;53.574;7.770;2023-11-21T01:33:18;101086.09;;;6.67;64.11
45040;BME280;30778;53.574;7.770;2023-11-21T01:35:45;101094.81;;;6.65;64.28
45040;BME280;30778;53.574;7.770;2023-11-21T01:38:12;101093.19;;;6.59;64.22
45040;BME280;30778;53.574;7.770;2023-11-21T01:40:37;101088.69;;;6.67;64.01
45040;BME280;30778;53.574;7.770;2023-11-21T01:43:03;101097.31;;;6.71;63.74
45040;BME280;30778;53.574;7.770;2023-11-21T01:45:29;101105.41;;;6.56;64.14
45040;BME280;30778;53.574;7.770;2023-11-21T01:47:59;101102.75;;;6.57;64.21
45040;BME280;30778;53.574;7.770;2023-11-21T01:50:26;101106.34;;;6.52;64.25
45040;BME280;30778;53.574;7.770;2023-11-21T01:52:52;101111.31;;;6.62;63.86
45040;BME280;30778;53.574;7.770;2023-11-21T01:55:18;101110.97;;;6.34;64.67
45040;BME280;30778;53.574;7.770;2023-11-21T01:57:45;101115.09;;;6.46;64.43
45040;BME280;30778;53.574;7.770;2023-11-21T02:00:12;101120.56;;;6.31;64.75
45040;BME280;30778;53.574;7.770;2023-11-21T02:02:47;101129.28;;;6.26;64.65
45040;BME280;30778;53.574;7.770;2023-11-21T02:05:16;101129.91;;;6.39;64.32
45040;BME280;30778;53.574;7.770;2023-11-21T02:07:44;101135.19;;;6.36;64.56
45040;BME280;30778;53.574;7.770;2023-11-21T02:10:14;101131.66;;;6.40;64.39
45040;BME280;30778;53.574;7.770;2023-11-21T02:12:44;101136.06;;;6.35;64.33
45040;BME280;30778;53.574;7.770;2023-11-21T02:15:13;101127.78;;;6.12;64.86
45040;BME280;30778;53.574;7.770;2023-11-21T02:17:46;101131.06;;;6.21;64.18
45040;BME280;30778;53.574;7.770;2023-11-21T02:20:13;101139.09;;;6.07;64.74
45040;BME280;30778;53.574;7.770;2023-11-21T02:22:52;101139.94;;;6.09;64.67
45040;BME280;30778;53.574;7.770;2023-11-21T02:25:28;101145.75;;;6.24;64.46
45040;BME280;30778;53.574;7.770;2023-11-21T02:27:55;101150.16;;;6.20;64.33
45040;BME280;30778;53.574;7.770;2023-11-21T02:30:21;101158.00;;;6.16;64.56
45040;BME280;30778;53.574;7.770;2023-11-21T02:32:51;101161.47;;;6.15;64.36
45040;BME280;30778;53.574;7.770;2023-11-21T02:35:18;101156.34;;;6.12;64.24
45040;BME280;30778;53.574;7.770;2023-11-21T02:37:49;101170.16;;;6.14;64.42
45040;BME280;30778;53.574;7.770;2023-11-21T02:40:15;101165.22;;;5.98;64.50
45040;BME280;30778;53.574;7.770;2023-11-21T02:42:49;101173.16;;;5.89;64.29
45040;BME280;30778;53.574;7.770;2023-11-21T02:45:17;101175.59;;;5.98;64.41
45040;BME280;30778;53.574;7.770;2023-11-21T02:47:43;101174.19;;;5.77;64.48
45040;BME280;30778;53.574;7.770;2023-11-21T02:50:09;101178.41;;;5.83;64.62
45040;BME280;30778;53.574;7.770;2023-11-21T02:52:35;101180.06;;;5.88;64.44
45040;BME280;30778;53.574;7.770;2023-11-21T02:55:01;101188.56;;;5.98;63.84
45040;BME280;30778;53.574;7.770;2023-11-21T02:57:27;101197.56;;;5.76;64.18
45040;BME280;30778;53.574;7.770;2023-11-21T02:59:52;101198.31;;;5.84;64.01
45040;BME280;30778;53.574;7.770;2023-11-21T03:02:21;101205.25;;;5.82;64.46
45040;BME280;30778;53.574;7.770;2023-11-21T03:04:48;101206.16;;;5.79;64.33
45040;BME280;30778;53.574;7.770;2023-11-21T03:07:17;101200.94;;;5.81;63.85
45040;BME280;30778;53.574;7.770;2023-11-21T03:09:47;101212.97;;;5.86;63.73
45040;BME280;30778;53.574;7.770;2023-11-21T03:12:14;101217.53;;;5.71;64.11
45040;BME280;30778;53.574;7.770;2023-11-21T03:14:41;101217.41;;;5.78;63.73
45040;BME280;30778;53.574;7.770;2023-11-21T03:17:06;101221.59;;;5.88;63.76
45040;BME280;30778;53.574;7.770;2023-11-21T03:19:34;101225.38;;;5.66;63.81
45040;BME280;30778;53.574;7.770;2023-11-21T03:21:59;101225.19;;;5.77;63.49
45040;BME280;30778;53.574;7.770;2023-11-21T03:24:25;101231.69;;;5.45;63.90
45040;BME280;30778;53.574;7.770;2023-11-21T03:26:52;101225.59;;;5.49;63.65
45040;BME280;30778;53.574;7.770;2023-11-21T03:29:18;101221.44;;;5.36;64.11
45040;BME280;30778;53.574;7.770;2023-11-21T03:31:43;101232.66;;;5.36;64.24
45040;BME280;30778;53.574;7.770;2023-11-21T03:34:15;101237.72;;;5.45;63.90
45040;BME280;30778;53.574;7.770;2023-11-21T03:36:41;101237.22;;;5.17;64.16
45040;BME280;30778;53.574;7.770;2023-11-21T03:39:07;101243.91;;;5.34;63.84
45040;BME280;30778;53.574;7.770;2023-11-21T03:41:32;101247.28;;;5.42;63.41
45040;BME280;30778;53.574;7.770;2023-11-21T03:43:59;101246.75;;;5.15;63.84
45040;BME280;30778;53.574;7.770;2023-11-21T03:46:24;101257.78;;;5.33;63.48
45040;BME280;30778;53.574;7.770;2023-11-21T03:48:50;101255.13;;;5.36;62.92
45040;BME280;30778;53.574;7.770;2023-11-21T03:51:16;101259.34;;;5.46;62.76
45040;BME280;30778;53.574;7.770;2023-11-21T03:53:41;101251.06;;;5.13;63.48
45040;BME280;30778;53.574;7.770;2023-11-21T03:56:09;101257.81;;;5.28;63.26
45040;BME280;30778;53.574;7.770;2023-11-21T03:58:35;101261.09;;;5.42;62.93
45040;BME280;30778;53.574;7.770;2023-11-21T04:01:00;101261.22;;;5.33;63.14
45040;BME280;30778;53.574;7.770;2023-11-21T04:03:26;101269.78;;;5.37;63.06
45040;BME280;30778;53.574;7.770;2023-11-21T04:05:52;101271.47;;;5.44;62.88
45040;BME280;30778;53.574;7.770;2023-11-21T04:08:17;101279.13;;;5.50;62.54
45040;BME280;30778;53.574;7.770;2023-11-21T04:10:43;101284.44;;;5.41;63.08
45040;BME280;30778;53.574;7.770;2023-11-21T04:13:08;101286.13;;;5.43;62.65
45040;BME280;30778;53.574;7.770;2023-11-21T04:15:34;101293.00;;;5.48;62.75
45040;BME280;30778;53.574;7.770;2023-11-21T04:17:59;101295.53;;;5.52;62.50
45040;BME280;30778;53.574;7.770;2023-11-21T04:20:25;101298.28;;;5.40;63.05
45040;BME280;30778;53.574;7.770;2023-11-21T04:22:50;101302.69;;;5.35;62.59
45040;BME280;30778;53.574;7.770;2023-11-21T04:25:15;101306.34;;;5.15;63.19
45040;BME280;30778;53.574;7.770;2023-11-21T04:27:42;101314.91;;;5.22;62.78
45040;BME280;30778;53.574;7.770;2023-11-21T04:30:12;101323.47;;;5.30;62.31
45040;BME280;30778;53.574;7.770;2023-11-21T04:32:37;101327.13;;;5.09;63.05
45040;BME280;30778;53.574;7.770;2023-11-21T04:35:04;101326.13;;;5.22;62.39
45040;BME280;30778;53.574;7.770;2023-11-21T04:37:30;101329.66;;;5.17;63.01
45040;BME280;30778;53.574;7.770;2023-11-21T04:39:55;101338.34;;;5.11;62.87
45040;BME280;30778;53.574;7.770;2023-11-21T04:42:21;101346.16;;;5.05;62.64
45040;BME280;30778;53.574;7.770;2023-11-21T04:44:47;101343.41;;;5.22;62.07
45040;BME280;30778;53.574;7.770;2023-11-21T04:47:12;101341.78;;;5.12;62.42
45040;BME280;30778;53.574;7.770;2023-11-21T04:49:41;101348.59;;;5.20;61.96
45040;BME280;30778;53.574;7.770;2023-11-21T04:52:07;101351.19;;;5.20;62.22
45040;BME280;30778;53.574;7.770;2023-11-21T04:54:35;101363.34;;;5.17;62.09
45040;BME280;30778;53.574;7.770;2023-11-21T04:57:01;101363.44;;;5.06;62.45
45040;BME280;30778;53.574;7.770;2023-11-21T04:59:26;101365.97;;;5.11;62.09
45040;BME280;30778;53.574;7.770;2023-11-21T05:01:53;101379.75;;;5.16;61.80
45040;BME280;30778;53.574;7.770;2023-11-21T05:04:19;101379.84;;;5.05;61.89
45040;BME280;30778;53.574;7.770;2023-11-21T05:06:45;101376.59;;;4.75;62.33
45040;BME280;30778;53.574;7.770;2023-11-21T05:09:11;101383.44;;;4.84;61.67
45040;BME280;30778;53.574;7.770;2023-11-21T05:11:37;101388.69;;;4.72;62.01
45040;BME280;30778;53.574;7.770;2023-11-21T05:14:03;101392.03;;;4.94;61.33
45040;BME280;30778;53.574;7.770;2023-11-21T05:16:30;101398.13;;;4.80;61.10
45040;BME280;30778;53.574;7.770;2023-11-21T05:18:56;101396.28;;;5.01;60.93
45040;BME280;30778;53.574;7.770;2023-11-21T05:21:26;101411.84;;;4.98;60.85
45040;BME280;30778;53.574;7.770;2023-11-21T05:23:52;101411.94;;;4.89;60.86
45040;BME280;30778;53.574;7.770;2023-11-21T05:26:17;101413.56;;;5.02;60.35
45040;BME280;30778;53.574;7.770;2023-11-21T05:28:43;101412.63;;;5.09;60.35
45040;BME280;30778;53.574;7.770;2023-11-21T05:31:09;101423.00;;;5.11;60.29
45040;BME280;30778;53.574;7.770;2023-11-21T05:33:36;101432.47;;;5.13;60.44
45040;BME280;30778;53.574;7.770;2023-11-21T05:36:01;101430.72;;;5.12;60.19
45040;BME280;30778;53.574;7.770;2023-11-21T05:38:27;101429.84;;;5.16;60.35
45040;BME280;30778;53.574;7.770;2023-11-21T05:40:52;101440.31;;;5.04;60.06
45040;BME280;30778;53.574;7.770;2023-11-21T05:43:18;101448.94;;;5.04;59.83
45040;BME280;30778;53.574;7.770;2023-11-21T05:45:43;101450.63;;;5.10;59.63
45040;BME280;30778;53.574;7.770;2023-11-21T05:48:09;101455.94;;;4.93;60.08
45040;BME280;30778;53.574;7.770;2023-11-21T05:50:34;101461.91;;;5.03;59.54
45040;BME280;30778;53.574;7.770;2023-11-21T05:53:00;101468.91;;;4.89;59.70
45040;BME280;30778;53.574;7.770;2023-11-21T05:55:25;101471.47;;;4.93;59.20
45040;BME280;30778;53.574;7.770;2023-11-21T05:57:51;101481.88;;;4.90;59.03
45040;BME280;30778;53.574;7.770;2023-11-21T06:00:17;101479.25;;;4.87;58.93
45040;BME280;30778;53.574;7.770;2023-11-21T06:02:47;101489.59;;;4.92;58.36
45040;BME280;30778;53.574;7.770;2023-11-21T06:05:17;101494.81;;;4.82;58.90
45040;BME280;30778;53.574;7.770;2023-11-21T06:07:43;101497.44;;;4.78;58.89
45040;BME280;30778;53.574;7.770;2023-11-21T06:10:11;101508.66;;;4.81;59.20
45040;BME280;30778;53.574;7.770;2023-11-21T06:12:38;101510.38;;;4.76;58.87
45040;BME280;30778;53.574;7.770;2023-11-21T06:15:07;101517.34;;;4.65;58.85
45040;BME280;30778;53.574;7.770;2023-11-21T06:17:36;101520.75;;;4.79;58.64
45040;BME280;30778;53.574;7.770;2023-11-21T06:20:06;101525.06;;;4.79;58.37
45040;BME280;30778;53.574;7.770;2023-11-21T06:22:38;101527.66;;;4.74;59.00
45040;BME280;30778;53.574;7.770;2023-11-21T06:25:05;101530.25;;;4.79;58.59
45040;BME280;30778;53.574;7.770;2023-11-21T06:27:37;101530.22;;;4.82;58.51
45040;BME280;30778;53.574;7.770;2023-11-21T06:30:03;101532.00;;;4.74;58.71
45040;BME280;30778;53.574;7.770;2023-11-21T06:32:29;101531.16;;;4.67;58.34
45040;BME280;30778;53.574;7.770;2023-11-21T06:34:55;101538.06;;;4.65;58.57
45040;BME280;30778;53.574;7.770;2023-11-21T06:37:21;101539.84;;;4.57;58.92
45040;BME280;30778;53.574;7.770;2023-11-21T06:39:49;101551.03;;;4.67;58.75
45040;BME280;30778;53.574;7.770;2023-11-21T06:42:14;101551.06;;;4.59;58.46
45040;BME280;30778;53.574;7.770;2023-11-21T06:44:40;101555.38;;;4.54;59.00
45040;BME280;30778;53.574;7.770;2023-11-21T06:47:07;101563.16;;;4.55;58.55
45040;BME280;30778;53.574;7.770;2023-11-21T06:49:32;101565.78;;;4.41;59.11
45040;BME280;30778;53.574;7.770;2023-11-21T06:51:58;101567.50;;;4.49;58.57
45040;BME280;30778;53.574;7.770;2023-11-21T06:54:24;101571.84;;;4.33;58.57
45040;BME280;30778;53.574;7.770;2023-11-21T06:56:50;101582.19;;;4.37;58.51
45040;BME280;30778;53.574;7.770;2023-11-21T06:59:15;101572.75;;;4.24;58.97
45040;BME280;30778;53.574;7.770;2023-11-21T07:01:41;101574.47;;;4.30;58.84
45040;BME280;30778;53.574;7.770;2023-11-21T07:04:07;101584.81;;;4.28;58.32
45040;BME280;30778;53.574;7.770;2023-11-21T07:06:34;101595.97;;;4.42;58.27
45040;BME280;30778;53.574;7.770;2023-11-21T07:09:00;101591.66;;;4.48;57.97
45040;BME280;30778;53.574;7.770;2023-11-21T07:11:27;101608.06;;;4.37;58.22
45040;BME280;30778;53.574;7.770;2023-11-21T07:13:52;101612.41;;;4.35;57.99
45040;BME280;30778;53.574;7.770;2023-11-21T07:16:18;101623.59;;;4.40;57.73
45040;BME280;30778;53.574;7.770;2023-11-21T07:18:44;101623.63;;;4.33;58.17
45040;BME280;30778;53.574;7.770;2023-11-21T07:21:10;101633.09;;;4.41;58.06
45040;BME280;30778;53.574;7.770;2023-11-21T07:23:40;101635.66;;;4.46;57.36
45040;BME280;30778;53.574;7.770;2023-11-21T07:26:06;101640.00;;;4.30;57.99
45040;BME280;30778;53.574;7.770;2023-11-21T07:28:35;101632.25;;;4.36;57.71
45040;BME280;30778;53.574;7.770;2023-11-21T07:31:01;101646.03;;;4.45;57.50
45040;BME280;30778;53.574;7.770;2023-11-21T07:33:27;101652.06;;;4.43;57.01
45040;BME280;30778;53.574;7.770;2023-11-21T07:35:52;101659.81;;;4.53;57.18
45040;BME280;30778;53.574;7.770;2023-11-21T07:38:18;101671.91;;;4.48;57.59
45040;BME280;30778;53.574;7.770;2023-11-21T07:40:43;101671.00;;;4.58;57.12
45040;BME280;30778;53.574;7.770;2023-11-21T07:43:09;101669.28;;;4.60;57.28
45040;BME280;30778;53.574;7.770;2023-11-21T07:45:36;101673.59;;;4.59;57.37
45040;BME280;30778;53.574;7.770;2023-11-21T07:48:02;101679.63;;;4.64;57.30
45040;BME280;30778;53.574;7.770;2023-11-21T07:50:29;101689.97;;;4.75;56.86
45040;BME280;30778;53.574;7.770;2023-11-21T07:52:54;101691.69;;;4.73;56.76
45040;BME280;30778;53.574;7.770;2023-11-21T07:55:20;101696.91;;;4.69;56.93
45040;BME280;30778;53.574;7.770;2023-11-21T07:57:45;101702.94;;;4.58;57.20
45040;BME280;30778;53.574;7.770;2023-11-21T08:00:11;101702.91;;;4.74;56.69
45040;BME280;30778;53.574;7.770;2023-11-21T08:02:40;101710.69;;;4.91;56.32
45040;BME280;30778;53.574;7.770;2023-11-21T08:05:08;101711.53;;;4.91;56.16
45040;BME280;30778;53.574;7.770;2023-11-21T08:07:34;101716.75;;;4.67;56.48
45040;BME280;30778;53.574;7.770;2023-11-21T08:10:00;101721.03;;;4.89;56.07
45040;BME280;30778;53.574;7.770;2023-11-21T08:12:25;101725.34;;;4.84;56.12
45040;BME280;30778;53.574;7.770;2023-11-21T08:14:53;101731.41;;;4.91;56.24
45040;BME280;30778;53.574;7.770;2023-11-21T08:17:21;101737.44;;;4.93;56.66
45040;BME280;30778;53.574;7.770;2023-11-21T08:19:47;101746.97;;;4.91;56.54
45040;BME280;30778;53.574;7.770;2023-11-21T08:22:17;101743.44;;;5.07;56.34
45040;BME280;30778;53.574;7.770;2023-11-21T08:24:46;101746.91;;;5.03;56.80
45040;BME280;30778;53.574;7.770;2023-11-21T08:27:12;101746.94;;;5.00;57.00
45040;BME280;30778;53.574;7.770;2023-11-21T08:29:41;101755.59;;;4.99;56.81
45040;BME280;30778;53.574;7.770;2023-11-21T08:32:07;101756.47;;;4.90;56.92
45040;BME280;30778;53.574;7.770;2023-11-21T08:34:32;101759.00;;;5.04;56.24
45040;BME280;30778;53.574;7.770;2023-11-21T08:36:58;101765.88;;;5.14;55.85
45040;BME280;30778;53.574;7.770;2023-11-21T08:39:24;101767.56;;;5.28;55.68
45040;BME280;30778;53.574;7.770;2023-11-21T08:41:50;101771.03;;;5.28;55.21
45040;BME280;30778;53.574;7.770;2023-11-21T08:44:16;101780.50;;;5.35;54.96
45040;BME280;30778;53.574;7.770;2023-11-21T08:46:44;101781.28;;;5.54;54.78
45040;BME280;30778;53.574;7.770;2023-11-21T08:49:11;101798.69;;;5.31;54.75
45040;BME280;30778;53.574;7.770;2023-11-21T08:51:37;101794.22;;;5.63;54.38
45040;BME280;30778;53.574;7.770;2023-11-21T08:54:03;101798.50;;;5.67;54.36
45040;BME280;30778;53.574;7.770;2023-11-21T08:56:33;101802.00;;;5.65;54.14
45040;BME280;30778;53.574;7.770;2023-11-21T08:58:59;101801.97;;;5.63;54.55
45040;BME280;30778;53.574;7.770;2023-11-21T09:01:28;101808.94;;;5.58;54.75
45040;BME280;30778;53.574;7.770;2023-11-21T09:03:53;101813.19;;;5.70;54.83
45040;BME280;30778;53.574;7.770;2023-11-21T09:06:18;101820.19;;;5.54;55.58
45040;BME280;30778;53.574;7.770;2023-11-21T09:08:44;101821.06;;;5.53;55.39
45040;BME280;30778;53.574;7.770;2023-11-21T09:11:10;101822.81;;;5.39;56.20
45040;BME280;30778;53.574;7.770;2023-11-21T09:13:35;101829.75;;;5.46;56.16
45040;BME280;30778;53.574;7.770;2023-11-21T09:16:02;101839.25;;;5.41;56.17
45040;BME280;30778;53.574;7.770;2023-11-21T09:18:27;101836.66;;;5.38;56.44
45040;BME280;30778;53.574;7.770;2023-11-21T09:20:53;101850.47;;;5.43;56.15
45040;BME280;30778;53.574;7.770;2023-11-21T09:23:18;101851.34;;;5.46;56.60
45040;BME280;30778;53.574;7.770;2023-11-21T09:25:44;101860.00;;;5.32;56.66
45040;BME280;30778;53.574;7.770;2023-11-21T09:28:12;101860.00;;;5.25;57.14
45040;BME280;30778;53.574;7.770;2023-11-21T09:30:37;101860.84;;;5.37;56.52
45040;BME280;30778;53.574;7.770;2023-11-21T09:33:03;101876.44;;;5.35;56.65
45040;BME280;30778;53.574;7.770;2023-11-21T09:35:32;101870.41;;;5.29;57.45
45040;BME280;30778;53.574;7.770;2023-11-21T09:37:57;101875.56;;;5.39;56.97
45040;BME280;30778;53.574;7.770;2023-11-21T09:40:24;101882.47;;;5.36;57.50
45040;BME280;30778;53.574;7.770;2023-11-21T09:42:54;101886.78;;;5.40;57.23
45040;BME280;30778;53.574;7.770;2023-11-21T09:45:25;101891.13;;;5.33;57.56
45040;BME280;30778;53.574;7.770;2023-11-21T09:47:55;101887.69;;;5.33;57.33
45040;BME280;30778;53.574;7.770;2023-11-21T09:50:22;101897.16;;;5.40;56.88
45040;BME280;30778;53.574;7.770;2023-11-21T09:53:12;101898.88;;;5.44;57.28
45040;BME280;30778;53.574;7.770;2023-11-21T09:55:42;101902.31;;;5.52;57.12
45040;BME280;30778;53.574;7.770;2023-11-21T09:58:09;101907.53;;;5.37;56.60
45040;BME280;30778;53.574;7.770;2023-11-21T10:00:48;101906.66;;;5.42;56.40
45040;BME280;30778;53.574;7.770;2023-11-21T10:03:14;101912.69;;;5.52;56.17
45040;BME280;30778;53.574;7.770;2023-11-21T10:05:42;101909.19;;;5.72;56.46
45040;BME280;30778;53.574;7.770;2023-11-21T10:08:08;101912.59;;;5.83;55.90
45040;BME280;30778;53.574;7.770;2023-11-21T10:10:42;101923.03;;;5.58;56.06
45040;BME280;30778;53.574;7.770;2023-11-21T10:13:11;101922.09;;;5.87;55.71
45040;BME280;30778;53.574;7.770;2023-11-21T10:15:37;101929.03;;;5.83;55.89
45040;BME280;30778;53.574;7.770;2023-11-21T10:18:04;101925.63;;;5.69;55.72
45040;BME280;30778;53.574;7.770;2023-11-21T10:20:32;101933.38;;;5.80;56.31
45040;BME280;30778;53.574;7.770;2023-11-21T10:22:59;101935.97;;;5.77;55.72
45040;BME280;30778;53.574;7.770;2023-11-21T10:25:27;101933.38;;;5.80;55.54
45040;BME280;30778;53.574;7.770;2023-11-21T10:27:58;101929.91;;;5.78;55.71
45040;BME280;30778;53.574;7.770;2023-11-21T10:30:37;101929.81;;;5.99;55.41
45040;BME280;30778;53.574;7.770;2023-11-21T10:33:04;101936.84;;;5.76;55.85
45040;BME280;30778;53.574;7.770;2023-11-21T10:35:46;101937.72;;;5.61;55.96
45040;BME280;30778;53.574;7.770;2023-11-21T10:38:14;101932.56;;;5.53;56.15
45040;BME280;30778;53.574;7.770;2023-11-21T10:40:44;101941.16;;;5.74;55.87
45040;BME280;30778;53.574;7.770;2023-11-21T10:43:10;101950.72;;;5.64;55.81
45040;BME280;30778;53.574;7.770;2023-11-21T10:45:39;101947.22;;;5.70;56.25
45040;BME280;30778;53.574;7.770;2023-11-21T10:48:06;101944.66;;;5.73;56.41
45040;BME280;30778;53.574;7.770;2023-11-21T10:50:34;101950.63;;;5.93;56.09
45040;BME280;30778;53.574;7.770;2023-11-21T10:53:03;101952.38;;;5.93;56.35
45040;BME280;30778;53.574;7.770;2023-11-21T10:55:31;101959.22;;;6.01;55.41
45040;BME280;30778;53.574;7.770;2023-11-21T10:57:59;101948.84;;;6.07;55.30
45040;BME280;30778;53.574;7.770;2023-11-21T11:00:27;101958.31;;;6.24;54.65
45040;BME280;30778;53.574;7.770;2023-11-21T11:02:53;101967.81;;;6.26;54.18
45040;BME280;30778;53.574;7.770;2023-11-21T11:05:23;101958.34;;;6.12;53.78
45040;BME280;30778;53.574;7.770;2023-11-21T11:08:13;101961.78;;;6.18;53.54
45040;BME280;30778;53.574;7.770;2023-11-21T11:10:38;101959.13;;;6.26;53.84
45040;BME280;30778;53.574;7.770;2023-11-21T11:13:04;101971.28;;;6.15;54.52
45040;BME280;30778;53.574;7.770;2023-11-21T11:15:32;101967.91;;;5.94;54.69
45040;BME280;30778;53.574;7.770;2023-11-21T11:17:58;101974.84;;;5.94;54.24
45040;BME280;30778;53.574;7.770;2023-11-21T11:20:32;101975.69;;;5.99;54.76
45040;BME280;30778;53.574;7.770;2023-11-21T11:26:04;101983.53;;;5.63;55.78
45040;BME280;30778;53.574;7.770;2023-11-21T11:28:44;101983.56;;;5.73;55.54
45040;BME280;30778;53.574;7.770;2023-11-21T11:34:30;101984.41;;;5.61;55.35
45040;BME280;30778;53.574;7.770;2023-11-21T11:37:07;101996.50;;;5.70;55.34
45040;BME280;30778;53.574;7.770;2023-11-21T11:39:43;101999.94;;;5.87;54.93
45040;BME280;30778;53.574;7.770;2023-11-21T11:42:12;102005.13;;;5.88;55.18
45040;BME280;30778;53.574;7.770;2023-11-21T11:44:46;102000.78;;;5.92;55.02
45040;BME280;30778;53.574;7.770;2023-11-21T11:47:26;102006.94;;;5.48;55.17
45040;BME280;30778;53.574;7.770;2023-11-21T11:50:06;102011.25;;;5.46;55.36
45040;BME280;30778;53.574;7.770;2023-11-21T11:52:51;102012.94;;;5.62;55.02
45040;BME280;30778;53.574;7.770;2023-11-21T11:55:20;102019.00;;;5.67;55.32
45040;BME280;30778;53.574;7.770;2023-11-21T11:57:48;102013.78;;;5.77;55.00
45040;BME280;30778;53.574;7.770;2023-11-21T12:02:49;102025.91;;;5.79;54.52
45040;BME280;30778;53.574;7.770;2023-11-21T12:05:17;102024.22;;;5.61;54.43
45040;BME280;30778;53.574;7.770;2023-11-21T12:07:51;102025.06;;;5.66;53.75
45040;BME280;30778;53.574;7.770;2023-11-21T12:10:22;102034.56;;;5.58;53.93
45040;BME280;30778;53.574;7.770;2023-11-21T12:12:55;102039.75;;;5.71;53.35
45040;BME280;30778;53.574;7.770;2023-11-21T12:15:21;102036.25;;;5.90;53.22
45040;BME280;30778;53.574;7.770;2023-11-21T12:17:48;102037.97;;;6.02;53.48
45040;BME280;30778;53.574;7.770;2023-11-21T12:20:16;102034.53;;;5.87;53.70
45040;BME280;30778;53.574;7.770;2023-11-21T12:25:08;102046.59;;;6.05;52.49
45040;BME280;30778;53.574;7.770;2023-11-21T12:27:34;102044.06;;;5.75;51.91
45040;BME280;30778;53.574;7.770;2023-11-21T12:30:00;102044.06;;;5.81;52.88
45040;BME280;30778;53.574;7.770;2023-11-21T12:32:26;102054.44;;;5.78;52.87
45040;BME280;30778;53.574;7.770;2023-11-21T12:34:51;102059.63;;;5.56;52.51
45040;BME280;30778;53.574;7.770;2023-11-21T12:37:17;102057.03;;;5.73;52.90
45040;BME280;30778;53.574;7.770;2023-11-21T12:39:43;102068.28;;;5.71;53.08
45040;BME280;30778;53.574;7.770;2023-11-21T12:42:09;102060.50;;;5.43;53.11
45040;BME280;30778;53.574;7.770;2023-11-21T12:44:35;102075.22;;;5.69;52.76
45040;BME280;30778;53.574;7.770;2023-11-21T12:47:02;102085.59;;;5.69;52.75
45040;BME280;30778;53.574;7.770;2023-11-21T12:49:28;102087.31;;;5.71;52.69
45040;BME280;30778;53.574;7.770;2023-11-21T12:51:53;102091.63;;;5.52;53.20
45040;BME280;30778;53.574;7.770;2023-11-21T12:54:19;102096.81;;;5.52;53.13
45040;BME280;30778;53.574;7.770;2023-11-21T12:56:45;102094.19;;;5.43;52.63
45040;BME280;30778;53.574;7.770;2023-11-21T12:59:12;102086.44;;;5.41;53.15
45040;BME280;30778;53.574;7.770;2023-11-21T13:01:42;102090.75;;;5.47;52.90
45040;BME280;30778;53.574;7.770;2023-11-21T13:04:07;102093.34;;;5.42;52.70
45040;BME280;30778;53.574;7.770;2023-11-21T13:06:36;102088.16;;;5.62;52.39
45040;BME280;30778;53.574;7.770;2023-11-21T13:09:07;102093.38;;;5.62;51.67
45040;BME280;30778;53.574;7.770;2023-11-21T13:11:36;102096.81;;;5.78;51.71